Create Custom Reports and Graphics: Custom Report

Scotts Valley

Current Conditions

8/12/20 8:15 PM (-07:00)
Updated Every 15 Minutes
Temp 77.1 °F   0.7
Daily Max Temp 96.4 °F   0.0
Daily Min Temp 46.7 °F   4.1
Daily Rain 0.00 In
RH 25 %   11
Dew Pt 39.0 °F   10.2
Wet Bulb 55.0 °F   4.7
Wind Dir WSW | 238 °
Wind Spd 0.3 mph   1.5
Wind Gust 2.4 mph   5.9
Leaf Wet 0.0 mins
BatVolt 12.9 V   0.0

Today & Yesterday

Midnight to Midnight

8/12/20 8:15 PM (-07:00)
Updated Every 15 Minutes
Daily Max Temp 96.4 °F   0.0
Daily Min Temp 46.7 °F   4.1
Daily Max Wind 13.6 mph   0.6
Max Wind Time 1747
Max Wind Dir SW | 231 °
Daily Leaf Wet Hrs 0.0 hrs   0.0
Daily Rain 0.00 In
Max Temp Yest 96.4 °F
Min Temp Yest 50.8 °F
Max Wind Yest 14.1 mph
Leaf Wet Hrs Yest 0.0 Hours
Rain Yest 0.00 In

Scotts Valley

Rainfall Report

8/12/20 8:15 PM (-07:00)
Updated Every 15 Minutes
Latest Rain 0.00 In
Daily Rain 0.00 In
Rain Yest 0.00 In
Monthly Rain 0.00 In
Seasonal Rainfall 0.00 In

Last 48 Hours

Scotts Valley

Hourly Data | America/Los_Angeles
as of 8/12/20 8:16 PM PDT
Date & Time Temp (°F) RH (%) Dew Pt (°F) Wet Bulb (°F) Wind Dir (°) Wind Spd (mph) Wind Gust (mph) Leaf Wet (mins) Latest Rain (In) Daily Rain (In) Daily Max Temp (°F) Daily Min Temp (°F) Daily Leaf Wet Hrs (hrs)
8/12/20 - 2000 83.6 19 36.6 55.8 WNW | 288 1.1 6.5 0.0 0.00 0.00 96.4 46.7 0.0
8/12/20 - 1900 89.6 16 37.4 57.4 W | 268 3.3 11.5 0.0 0.00 0.00 96.4 46.7 0.0
8/12/20 - 1800 92.9 15 38.2 58.3 SW | 235 4.5 13.9 0.0 0.00 0.00 96.4 46.7 0.0
8/12/20 - 1700 94.8 14 38.6 58.7 SW | 236 4.2 11.8 0.0 0.00 0.00 96.4 46.7 0.0
8/12/20 - 1600 95.5 11 33.4 57.4 SW | 232 3.8 11.2 0.0 0.00 0.00 96.4 46.7 0.0
8/12/20 - 1500 95.0 9 27.2 55.8 SSW | 201 4.1 11.0 0.0 0.00 0.00 95.9 46.7 0.0
8/12/20 - 1400 93.2 12 31.2 56.6 SE | 140 2.9 9.4 0.0 0.00 0.00 95.4 46.7 0.0
8/12/20 - 1300 89.9 20 43.2 59.5 E | 95 2.9 7.7 0.0 0.00 0.00 92.2 46.7 0.0
8/12/20 - 1200 86.4 31 52.4 63.1 SSE | 154 2.3 6.1 0.0 0.00 0.00 89.3 46.7 0.0
8/12/20 - 1100 81.0 43 56.1 64.3 SE | 124 2.1 5.4 0.0 0.00 0.00 83.4 46.7 0.0
8/12/20 - 1000 77.2 46 54.9 62.8 ENE | 73 1.3 4.3 0.0 0.00 0.00 79.8 46.7 0.0
8/12/20 - 0900 68.4 64 55.6 61.1 NE | 39 0.6 2.5 0.0 0.00 0.00 74.4 46.7 0.0
8/12/20 - 0800 53.0 96 51.7 53.2 E | 98 0.3 1.9 0.0 0.00 0.00 60.8 46.7 0.0
8/12/20 - 0700 47.1 97 46.2 47.2 S | 184 0.1 1.0 0.0 0.00 0.00 57.2 46.7 0.0
8/12/20 - 0600 48.3 96 47.2 48.4 S | 187 0.3 1.6 0.0 0.00 0.00 57.2 47.2 0.0
8/12/20 - 0500 49.6 94 48.1 49.5 SSW | 210 0.1 2.0 0.0 0.00 0.00 57.2 48.8 0.0
8/12/20 - 0400 51.4 93 49.3 51.0 S | 184 0.1 1.5 0.0 0.00 0.00 57.2 50.4 0.0
8/12/20 - 0300 53.5 89 50.4 52.6 S | 188 0.1 1.3 0.0 0.00 0.00 57.2 52.2 0.0
8/12/20 - 0200 55.7 84 51.0 53.9 S | 181 0.2 1.5 0.0 0.00 0.00 57.2 54.2 0.0
8/12/20 - 0100 58.7 78 51.8 55.6 NNW | 335 0.1 1.5 0.0 0.00 0.00 96.4 50.8 0.0
8/12/20 - 0000 63.5 67 52.5 57.7 N | 360 0.2 2.8 0.0 0.00 0.00 96.4 50.8 0.0
8/11/20 - 2300 69.2 55 52.4 59.4 WSW | 251 1.2 3.6 0.0 0.00 0.00 96.4 50.8 0.0
8/11/20 - 2200 73.4 45 50.7 59.5 W | 280 1.2 5.2 0.0 0.00 0.00 96.4 50.8 0.0
8/11/20 - 2100 76.9 38 49.2 59.5 W | 269 3.0 10.6 0.0 0.00 0.00 96.4 50.8 0.0
8/11/20 - 2000 81.9 33 49.9 61.0 WSW | 256 2.0 9.4 0.0 0.00 0.00 96.4 50.8 0.0
8/11/20 - 1900 87.2 32 53.6 63.8 WSW | 247 3.7 10.3 0.0 0.00 0.00 96.4 50.8 0.0
8/11/20 - 1800 90.1 28 52.9 63.8 WSW | 248 5.0 12.4 0.0 0.00 0.00 96.4 50.8 0.0
8/11/20 - 1700 93.2 22 49.0 62.4 W | 269 3.7 11.8 0.0 0.00 0.00 96.4 50.8 0.0
8/11/20 - 1600 93.3 19 44.6 60.6 WSW | 255 5.2 13.0 0.0 0.00 0.00 96.4 50.8 0.0
8/11/20 - 1500 94.7 16 40.8 59.4 W | 273 4.1 14.1 0.0 0.00 0.00 96.4 50.8 0.0
8/11/20 - 1400 93.0 17 42.4 59.7 SE | 141 3.2 9.9 0.0 0.00 0.00 94.1 50.8 0.0
8/11/20 - 1300 90.9 22 46.5 61.0 SSE | 161 2.7 8.1 0.0 0.00 0.00 92.2 50.8 0.0
8/11/20 - 1200 87.6 26 48.1 61.1 SSE | 156 2.3 7.0 0.0 0.00 0.00 90.4 50.8 0.0
8/11/20 - 1100 84.3 29 48.9 60.9 E | 82 2.1 6.4 0.0 0.00 0.00 86.5 50.8 0.0
8/11/20 - 1000 80.1 32 47.6 59.4 ENE | 77 1.6 5.0 0.0 0.00 0.00 82.3 50.8 0.0
8/11/20 - 0900 72.1 47 50.7 59.1 NNE | 33 0.7 2.8 0.0 0.00 0.00 77.1 50.8 0.0
8/11/20 - 0800 57.0 77 49.6 53.5 NNW | 328 0.2 2.1 0.0 0.00 0.00 64.8 50.8 0.0
8/11/20 - 0700 51.1 84 46.3 49.2 SSW | 210 0.1 1.1 0.0 0.00 0.00 59.3 50.8 0.0
8/11/20 - 0600 52.1 80 46.2 49.6 S | 188 0.2 1.2 0.0 0.00 0.00 59.3 51.4 0.0
8/11/20 - 0500 53.2 77 46.4 50.2 S | 182 0.3 2.0 0.0 0.00 0.00 59.3 52.5 0.0
8/11/20 - 0400 54.7 73 46.2 50.7 SSW | 196 0.3 1.9 0.0 0.00 0.00 59.3 54.0 0.0
8/11/20 - 0300 56.1 69 46.0 51.2 SSW | 206 0.1 1.4 0.0 0.00 0.00 59.3 55.2 0.0
8/11/20 - 0200 58.1 65 46.3 52.2 WSW | 249 0.3 2.1 0.0 0.00 0.00 59.3 56.9 0.0
8/11/20 - 0100 60.6 61 46.9 53.4 NNE | 28 0.3 2.2 0.0 0.00 0.00 99.1 54.7 0.0
8/11/20 - 0000 63.0 55 46.7 54.2 WSW | 254 0.2 2.1 0.0 0.00 0.00 99.1 54.7 0.0
8/10/20 - 2300 66.2 48 45.6 54.7 SSE | 160 0.3 1.9 0.0 0.00 0.00 99.1 54.7 0.0
8/10/20 - 2200 70.9 36 42.8 54.8 S | 190 0.2 1.5 0.0 0.00 0.00 99.1 54.7 0.0
8/10/20 - 2100 79.3 25 40.4 56.2 W | 275 0.4 3.4 0.0 0.00 0.00 99.1 54.7 0.0
8/10/20 - 2000 88.1 16 36.2 56.7 W | 261 1.7 7.4 0.0 0.00 0.00 99.1 54.7 0.0
Max 95.5 97 56.1 64.3 - 5.2 14.1 0.0 0.00 0.00 99.1 56.9 0.0
Avg 73.6 47 46.2 56.7 - 1.7 5.6 0.0 0.00 - - - -
Min 47.1 9 27.2 47.2 - 0.1 1.0 0.0 0.00 0.00 57.2 46.7 0.0
Total - - - - - - - - 0.00 - - - -

Last 30 Days

Scotts Valley

Daily Data | America/Los_Angeles
as of 8/12/20 8:16 PM PDT
Date Daily Max Temp (°F) Max Temp Time Daily Min Temp (°F) Min Temp Time Daily Rain (In) Monthly Rain (In) Seasonal Rainfall (In) Wind Spd (mph) Daily Max Wind (mph) Max Wind Time Max Wind Dir (°) Dew Pt (°F) Max RH (%) Min RH (%) Hrs <= 32F (hrs) Hrs <= 28F (hrs) Chilling <=45F (hrs) Chill Hrs 32-45F (hrs) Utah Chilling (Units) GDDs (DL) GDDs (Mx/Mn) Seas GDDs (DL) Seasonal GDDs (Mx/Mn) Hrs 70-85F (hrs) Hrs > 95F (hrs) Powdery Mildew Stress (pts) Degree Hrs (hrs) Bat Volt Min Day (V)
8/11/20 96.4 1420 50.8 0636 0.00 0.00 0.00 1.8 14.1 1447 WSW | 255 48.3 86 13 0.0 0.0 0.0 0.0 0.0 23.8 23.6 2,069 1,839 3.28 0.44 0 292.8 12.6
8/10/20 99.1 1457 54.7 0634 0.00 0.00 0.00 1.7 16.2 1546 SW | 218 49.2 88 13 0.0 0.0 0.0 0.0 -16.5 27.0 26.9 2,045 1,815 1.78 5.30 0 342.8 12.6
8/9/20 101.5 1608 52.8 0639 0.00 0.00 0.00 1.3 16.0 1726 WSW | 257 51.9 92 16 0.0 0.0 0.0 0.0 -16.5 27.2 27.1 2,018 1,788 2.34 5.54 0 359.0 12.6
8/8/20 96.7 1500 51.9 0636 0.00 0.00 0.00 1.8 14.9 1708 WSW | 244 53.6 96 23 0.0 0.0 0.0 0.0 -16.0 24.6 24.3 1,991 1,761 2.26 1.82 0 306.8 12.6
8/7/20 94.3 1457 50.2 0618 0.00 0.00 0.00 1.5 14.8 1642 W | 273 53.2 98 25 0.0 0.0 0.0 0.0 -16.0 21.9 22.2 1,966 1,737 3.25 0.00 0 258.1 12.6
8/6/20 86.4 1510 50.1 0637 0.00 0.00 0.00 2.2 17.7 1646 WSW | 256 52.6 99 28 0.0 0.0 0.0 0.0 0.0 18.0 18.2 1,944 1,715 5.76 0.00 0 176.6 12.6
8/5/20 87.8 1509 50.8 0439 0.00 0.00 0.00 1.7 13.9 1914 W | 276 53.9 100 31 0.0 0.0 0.0 0.0 0.0 17.1 19.3 1,926 1,696 4.67 0.00 0 155.7 12.6
8/4/20 93.9 1437 48.6 0634 0.00 0.00 0.00 1.9 17.0 1739 W | 261 51.5 98 17 0.0 0.0 0.0 0.0 0.0 20.6 21.3 1,909 1,677 2.83 0.00 0 247.4 12.6
8/3/20 92.2 1415 48.6 0627 0.00 0.00 0.00 2.0 16.2 1459 SW | 232 48.4 93 16 0.0 0.0 0.0 0.0 0.0 21.3 20.4 1,889 1,656 2.84 0.00 0 253.1 12.6
8/2/20 95.1 1325 46.6 0610 0.00 0.00 0.00 1.9 16.8 1619 WSW | 254 45.7 94 13 0.0 0.0 0.0 0.0 0.0 21.4 20.8 1,867 1,635 2.57 0.01 0 264.3 12.6
8/1/20 96.2 1535 44.0 0616 0.00 0.00 0.00 1.7 13.9 1730 W | 260 43.8 97 10 0.0 0.0 1.6 1.6 0.0 21.6 20.1 1,846 1,615 2.80 1.28 0 275.9 12.6
7/31/20 93.8 1551 41.1 0622 0.00 0.00 0.00 1.8 14.9 1833 W | 262 40.2 92 9 0.0 0.0 3.5 3.5 1.0 20.1 17.4 1,824 1,595 2.40 0.00 0 255.4 12.6
7/30/20 98.0 1459 44.6 0616 0.00 0.00 0.00 1.5 13.2 1831 W | 269 41.2 94 3 0.0 0.0 0.6 0.6 0.5 21.9 21.3 1,804 1,577 2.34 2.46 0 290.8 12.6
7/29/20 96.7 1640 45.7 0619 0.00 0.00 0.00 1.7 13.1 1802 SW | 233 42.7 96 7 0.0 0.0 0.0 0.0 0.0 22.9 21.2 1,782 1,556 1.87 2.39 0 305.9 12.6
7/28/20 99.0 1433 49.6 0617 0.00 0.00 0.00 1.8 14.6 1723 WSW | 241 44.1 89 8 0.0 0.0 0.0 0.0 0.0 24.4 24.3 1,759 1,535 2.03 4.83 0 326.5 12.6
7/27/20 98.7 1537 49.8 0616 0.00 0.00 0.00 1.7 15.5 1435 WSW | 239 44.3 90 10 0.0 0.0 0.0 0.0 0.0 25.6 24.2 1,735 1,510 2.34 5.17 0 343.4 12.6
7/26/20 97.2 1540 49.0 0624 0.00 0.00 0.00 1.8 13.4 1639 WSW | 251 48.0 91 12 0.0 0.0 0.0 0.0 0.0 23.9 23.1 1,709 1,486 1.89 3.71 0 313.4 12.6
7/25/20 96.5 1419 48.8 0615 0.00 0.00 0.00 1.6 13.3 1745 WSW | 239 50.5 98 15 0.0 0.0 0.0 0.0 0.0 23.3 22.7 1,686 1,463 2.38 1.38 0 299.8 12.6
7/24/20 92.9 1613 49.4 0611 0.00 0.00 0.00 1.7 14.2 1449 W | 276 50.2 97 16 0.0 0.0 0.0 0.0 0.0 22.1 21.1 1,662 1,440 2.78 0.00 0 266.0 12.6
7/23/20 93.1 1616 51.2 0632 0.00 0.00 0.00 2.1 17.9 1712 WSW | 254 51.3 99 17 0.0 0.0 0.0 0.0 0.0 22.8 22.2 1,640 1,419 3.18 0.00 0 265.6 12.6
7/22/20 91.4 1337 54.7 0626 0.00 0.00 0.00 1.9 12.7 1357 W | 268 55.2 96 17 0.0 0.0 0.0 0.0 -16.5 23.7 23.0 1,617 1,397 3.45 0.00 0 257.0 12.6
7/21/20 95.2 1335 54.0 0605 0.00 0.00 0.00 1.7 15.8 1504 SW | 222 53.8 90 22 0.0 0.0 0.0 0.0 -17.0 25.7 24.6 1,593 1,374 2.64 0.05 0 312.6 12.6
7/20/20 96.6 1427 51.0 0610 0.00 0.00 0.00 1.8 13.6 1652 WNW | 298 50.2 95 15 0.0 0.0 0.0 0.0 -14.5 25.0 23.8 1,568 1,349 2.69 0.83 0 318.4 12.6
7/19/20 99.1 1502 50.5 0609 0.00 0.00 0.00 1.7 14.3 1506 W | 267 49.9 96 8 0.0 0.0 0.0 0.0 0.0 25.6 24.8 1,543 1,325 2.15 4.43 0 334.2 12.6
7/18/20 95.6 1553 53.8 0620 0.00 0.00 0.00 1.7 12.8 1454 SW | 227 53.7 100 16 0.0 0.0 0.0 0.0 -17.0 25.9 24.7 1,517 1,301 3.11 0.60 0 319.9 12.6
7/17/20 96.2 1411 53.1 0612 0.00 0.00 0.00 1.6 11.4 1720 WSW | 243 56.5 99 24 0.0 0.0 0.0 0.0 -15.5 24.8 24.7 1,491 1,276 2.46 1.18 0 302.0 12.6
7/16/20 95.9 1407 53.0 0559 0.00 0.00 0.00 1.8 14.1 1618 WSW | 250 55.7 97 24 0.0 0.0 0.0 0.0 -15.5 25.4 24.4 1,466 1,251 2.87 1.28 0 310.2 12.6
7/15/20 99.4 1415 51.5 0600 0.00 0.00 0.00 1.6 16.1 1901 WNW | 300 52.3 98 18 0.0 0.0 0.0 0.0 -15.5 26.7 25.5 1,441 1,227 2.89 5.14 0 348.7 12.6
7/14/20 96.6 1532 53.8 0557 0.00 0.00 0.00 1.7 13.5 1757 WSW | 245 53.8 96 18 0.0 0.0 0.0 0.0 -16.5 25.6 25.2 1,414 1,201 2.41 2.46 0 312.4 12.6
7/13/20 95.7 1541 50.3 0610 0.00 0.00 0.00 1.6 12.4 1633 WSW | 243 52.2 99 19 0.0 0.0 0.0 0.0 -14.5 24.4 23.0 1,389 1,176 2.96 0.39 0 304.3 12.6
Max 101.5 - 54.7 - 0.00 0.00 - 2.2 17.9 - - 56.5 100 31 0.0 0.0 3.5 3.5 1.0 27.2 27.1 - - 5.76 5.54 0 359.0 12.6
Avg - - - - - 0.00 - 1.7 - - - 49.9 - - 0.0 0.0 0.2 0.2 -6.9 23.5 22.9 - - 2.77 1.69 - - -
Min 86.4 - 41.1 - 0.00 0.00 - 1.3 11.4 - - 40.2 86 3 0.0 0.0 0.0 0.0 -17.0 17.1 17.4 - - 1.78 0.00 0 155.7 12.6
Total - - - - - - - - - - - - - - 0.0 0.0 5.7 5.7 -206.0 704.6 685.7 - - 83.23 50.67 - - -

Climate Summary

Scotts Valley

Current Year | Showing 1/1/20 - 8/11/20
as of 8/12/20 8:16 PM PDT
Temperature (°F) Precip (in) Days
Month Days Avg Max Avg Min Max Max Min Min Total Daily Min Temp < 28 Daily Min Temp < 32 Daily Max Temp > 90 Daily Max Temp > 100 Daily Rain > 0.01 Daily Rain > 0.1
Jan 2020 31 56.1 31.6 72.9 21.2 2.5 10 20 0 0 13 5
Feb 2020 29 67.8 27.1 77.4 19.7 0 19 26 0 0 0 0
Mar 2020 31 61.3 31.2 80.9 23 1.02 6 21 0 0 8 5
Apr 2020 30 71.3 37.4 87.3 23.8 0.71 2 7 0 0 4 3
May 2020 31 77.8 40.1 96.3 28.4 1.08 0 4 8 0 5 4
Jun 2020 30 86.7 46.2 105.4 31.1 0 0 1 15 3 0 0
Jul 2020 31 94.5 47.6 99.7 39.7 0 0 0 26 0 0 0
Aug 2020 11 94.5 49.9 101.5 44 0 0 0 9 1 0 0
Total 224 - - - - 5.31 37 79 58 4 30 17
Average 28 76.2 38.9 - - 0.66 4.6 9.9 7.2 0.5 3.8 2.1
Maximum 31 94.5 49.9 105.4 - 2.5 19 26 26 3 13 5
Minimum 11 56.1 27.1 - 19.7 0 0 0 0 0 0 0

Climate Summary

Scotts Valley

Last Year | Showing 1/1/19 - 12/31/19
as of 8/12/20 8:16 PM PDT
Temperature (°F) Precip (in) Days
Month Days Avg Max Avg Min Max Max Min Min Total Daily Min Temp < 28 Daily Min Temp < 32 Daily Max Temp > 90 Daily Max Temp > 100 Daily Rain > 0.01 Daily Rain > 0.1
Jan 2019 31 57.6 34.2 74 20.7 8.2 8 13 0 0 12 11
Feb 2019 28 49.3 32 56.8 18.1 15.8 10 15 0 0 18 14
Mar 2019 31 59.1 34.5 73.8 24.4 6.02 3 13 0 0 13 11
Apr 2019 30 71.4 41.4 88.6 31.4 0.42 0 1 0 0 6 1
May 2019 31 73.6 40.4 85.9 30.2 2.86 0 1 0 0 7 5
Jun 2019 30 88 46.4 99.6 34.9 0 0 0 12 0 0 0
Jul 2019 31 90.1 47.6 100.9 40.2 0 0 0 18 1 0 0
Aug 2019 31 93.1 48.8 101.9 42.6 0 0 0 22 5 0 0
Sep 2019 30 85.1 41.8 102.2 30.6 0.17 0 2 11 1 2 1
Oct 2019 27 78 28.3 91.8 15.2 0.07 13 20 2 0 1 0
Nov 2019 30 70.2 28.4 83.9 18.1 2.15 15 23 0 0 3 3
Dec 2019 31 53.2 34.5 63 18.9 6.9 8 14 0 0 18 10
Total 361 - - - - 42.59 57 102 65 7 80 56
Average 30.1 72.4 38.2 - - 3.55 4.8 8.5 5.4 0.6 6.7 4.7
Maximum 31 93.1 48.8 102.2 - 15.8 15 23 22 5 18 14
Minimum 27 49.3 28.3 - 15.2 0 0 0 0 0 0 0
Calm: 3.1%
Calm: 1.7%